sensor_id;sensor_type;location;lat;lon;timestamp;P1;durP1;ratioP1;P2;durP2;ratioP2
1925;SDS011;964;42.606;23.588;2023-04-15T00:00:52;10.97;;;7.63;;
1925;SDS011;964;42.606;23.588;2023-04-15T00:03:19;9.23;;;5.03;;
1925;SDS011;964;42.606;23.588;2023-04-15T00:05:46;6.97;;;4.33;;
1925;SDS011;964;42.606;23.588;2023-04-15T00:08:13;5.63;;;3.60;;
1925;SDS011;964;42.606;23.588;2023-04-15T00:10:41;5.30;;;3.23;;
1925;SDS011;964;42.606;23.588;2023-04-15T00:13:10;5.10;;;3.03;;
1925;SDS011;964;42.606;23.588;2023-04-15T00:15:37;4.60;;;3.37;;
1925;SDS011;964;42.606;23.588;2023-04-15T00:18:04;4.30;;;2.90;;
1925;SDS011;964;42.606;23.588;2023-04-15T00:20:31;5.53;;;3.63;;
1925;SDS011;964;42.606;23.588;2023-04-15T00:22:58;15.53;;;6.40;;
1925;SDS011;964;42.606;23.588;2023-04-15T00:25:25;13.90;;;8.70;;
1925;SDS011;964;42.606;23.588;2023-04-15T00:27:53;18.90;;;11.48;;
1925;SDS011;964;42.606;23.588;2023-04-15T00:30:20;16.40;;;9.10;;
1925;SDS011;964;42.606;23.588;2023-04-15T00:32:47;13.30;;;7.00;;
1925;SDS011;964;42.606;23.588;2023-04-15T00:35:15;9.20;;;6.07;;
1925;SDS011;964;42.606;23.588;2023-04-15T00:37:42;5.17;;;3.20;;
1925;SDS011;964;42.606;23.588;2023-04-15T00:40:10;7.97;;;4.00;;
1925;SDS011;964;42.606;23.588;2023-04-15T00:42:38;5.07;;;3.50;;
1925;SDS011;964;42.606;23.588;2023-04-15T00:45:07;4.50;;;3.00;;
1925;SDS011;964;42.606;23.588;2023-04-15T00:47:35;2.60;;;2.40;;
1925;SDS011;964;42.606;23.588;2023-04-15T00:50:03;4.10;;;2.70;;
1925;SDS011;964;42.606;23.588;2023-04-15T00:52:30;5.90;;;2.73;;
1925;SDS011;964;42.606;23.588;2023-04-15T00:54:57;2.90;;;2.13;;
1925;SDS011;964;42.606;23.588;2023-04-15T00:57:25;7.53;;;3.00;;
1925;SDS011;964;42.606;23.588;2023-04-15T00:59:55;5.43;;;2.53;;
1925;SDS011;964;42.606;23.588;2023-04-15T01:02:23;2.40;;;2.00;;
1925;SDS011;964;42.606;23.588;2023-04-15T01:04:50;2.93;;;2.13;;
1925;SDS011;964;42.606;23.588;2023-04-15T01:07:17;2.47;;;1.80;;
1925;SDS011;964;42.606;23.588;2023-04-15T01:09:44;1.97;;;1.77;;
1925;SDS011;964;42.606;23.588;2023-04-15T01:12:12;2.67;;;1.90;;
1925;SDS011;964;42.606;23.588;2023-04-15T01:14:40;4.13;;;2.00;;
1925;SDS011;964;42.606;23.588;2023-04-15T01:17:07;4.70;;;2.40;;
1925;SDS011;964;42.606;23.588;2023-04-15T01:19:36;2.63;;;2.03;;
1925;SDS011;964;42.606;23.588;2023-04-15T01:22:03;2.93;;;2.17;;
1925;SDS011;964;42.606;23.588;2023-04-15T01:24:31;2.47;;;2.00;;
1925;SDS011;964;42.606;23.588;2023-04-15T01:27:00;2.63;;;2.40;;
1925;SDS011;964;42.606;23.588;2023-04-15T01:29:27;8.67;;;5.30;;
1925;SDS011;964;42.606;23.588;2023-04-15T01:31:55;10.47;;;5.63;;
1925;SDS011;964;42.606;23.588;2023-04-15T01:34:21;4.10;;;2.73;;
1925;SDS011;964;42.606;23.588;2023-04-15T01:36:48;11.03;;;4.47;;
1925;SDS011;964;42.606;23.588;2023-04-15T01:39:16;13.50;;;7.00;;
1925;SDS011;964;42.606;23.588;2023-04-15T01:41:43;15.00;;;6.57;;
1925;SDS011;964;42.606;23.588;2023-04-15T01:44:11;4.63;;;3.73;;
1925;SDS011;964;42.606;23.588;2023-04-15T01:46:38;3.77;;;2.77;;
1925;SDS011;964;42.606;23.588;2023-04-15T01:49:05;4.60;;;3.20;;
1925;SDS011;964;42.606;23.588;2023-04-15T01:51:32;10.33;;;5.83;;
1925;SDS011;964;42.606;23.588;2023-04-15T01:53:59;5.20;;;4.13;;
1925;SDS011;964;42.606;23.588;2023-04-15T01:56:26;3.93;;;2.53;;
1925;SDS011;964;42.606;23.588;2023-04-15T01:58:53;5.80;;;3.20;;
1925;SDS011;964;42.606;23.588;2023-04-15T02:01:22;6.87;;;3.93;;
1925;SDS011;964;42.606;23.588;2023-04-15T02:03:49;3.33;;;2.70;;
1925;SDS011;964;42.606;23.588;2023-04-15T02:06:16;9.80;;;5.30;;
1925;SDS011;964;42.606;23.588;2023-04-15T02:08:43;3.20;;;2.50;;
1925;SDS011;964;42.606;23.588;2023-04-15T02:11:10;3.57;;;2.57;;
1925;SDS011;964;42.606;23.588;2023-04-15T02:13:37;2.17;;;1.90;;
1925;SDS011;964;42.606;23.588;2023-04-15T02:16:04;2.57;;;1.80;;
1925;SDS011;964;42.606;23.588;2023-04-15T02:18:43;7.50;;;2.30;;
1925;SDS011;964;42.606;23.588;2023-04-15T02:21:09;2.97;;;2.30;;
1925;SDS011;964;42.606;23.588;2023-04-15T02:23:36;9.60;;;4.50;;
1925;SDS011;964;42.606;23.588;2023-04-15T02:26:03;3.27;;;2.60;;
1925;SDS011;964;42.606;23.588;2023-04-15T02:28:30;5.70;;;2.90;;
1925;SDS011;964;42.606;23.588;2023-04-15T02:30:57;2.80;;;2.23;;
1925;SDS011;964;42.606;23.588;2023-04-15T02:33:25;4.03;;;2.67;;
1925;SDS011;964;42.606;23.588;2023-04-15T02:35:54;7.30;;;3.23;;
1925;SDS011;964;42.606;23.588;2023-04-15T02:38:20;5.63;;;2.77;;
1925;SDS011;964;42.606;23.588;2023-04-15T02:40:47;3.80;;;2.70;;
1925;SDS011;964;42.606;23.588;2023-04-15T02:43:15;4.73;;;2.97;;
1925;SDS011;964;42.606;23.588;2023-04-15T02:45:42;3.37;;;2.57;;
1925;SDS011;964;42.606;23.588;2023-04-15T02:48:09;4.80;;;2.20;;
1925;SDS011;964;42.606;23.588;2023-04-15T02:50:36;6.83;;;2.70;;
1925;SDS011;964;42.606;23.588;2023-04-15T02:53:06;4.80;;;3.30;;
1925;SDS011;964;42.606;23.588;2023-04-15T02:55:33;11.33;;;3.07;;
1925;SDS011;964;42.606;23.588;2023-04-15T02:58:00;5.80;;;2.57;;
1925;SDS011;964;42.606;23.588;2023-04-15T03:00:27;7.10;;;2.83;;
1925;SDS011;964;42.606;23.588;2023-04-15T03:02:56;4.70;;;2.30;;
1925;SDS011;964;42.606;23.588;2023-04-15T03:05:24;3.90;;;1.90;;
1925;SDS011;964;42.606;23.588;2023-04-15T03:07:51;6.30;;;2.50;;
1925;SDS011;964;42.606;23.588;2023-04-15T03:10:20;5.13;;;2.70;;
1925;SDS011;964;42.606;23.588;2023-04-15T03:12:47;5.93;;;3.40;;
1925;SDS011;964;42.606;23.588;2023-04-15T03:15:14;14.40;;;5.60;;
1925;SDS011;964;42.606;23.588;2023-04-15T03:17:41;8.43;;;4.73;;
1925;SDS011;964;42.606;23.588;2023-04-15T03:20:08;11.23;;;4.60;;
1925;SDS011;964;42.606;23.588;2023-04-15T03:22:35;6.73;;;3.70;;
1925;SDS011;964;42.606;23.588;2023-04-15T03:25:02;7.17;;;4.27;;
1925;SDS011;964;42.606;23.588;2023-04-15T03:27:31;9.00;;;3.47;;
1925;SDS011;964;42.606;23.588;2023-04-15T03:29:57;2.87;;;2.00;;
1925;SDS011;964;42.606;23.588;2023-04-15T03:32:24;3.20;;;2.20;;
1925;SDS011;964;42.606;23.588;2023-04-15T03:34:51;3.50;;;2.30;;
1925;SDS011;964;42.606;23.588;2023-04-15T03:37:18;4.87;;;2.97;;
1925;SDS011;964;42.606;23.588;2023-04-15T03:39:45;6.47;;;2.70;;
1925;SDS011;964;42.606;23.588;2023-04-15T03:42:12;5.80;;;3.27;;
1925;SDS011;964;42.606;23.588;2023-04-15T03:44:40;4.70;;;3.20;;
1925;SDS011;964;42.606;23.588;2023-04-15T03:47:07;6.80;;;3.33;;
1925;SDS011;964;42.606;23.588;2023-04-15T03:49:33;4.90;;;2.50;;
1925;SDS011;964;42.606;23.588;2023-04-15T03:52:01;3.27;;;2.87;;
1925;SDS011;964;42.606;23.588;2023-04-15T03:54:27;6.23;;;3.20;;
1925;SDS011;964;42.606;23.588;2023-04-15T03:56:54;3.13;;;2.83;;
1925;SDS011;964;42.606;23.588;2023-04-15T03:59:21;3.40;;;2.60;;
1925;SDS011;964;42.606;23.588;2023-04-15T04:01:50;5.10;;;3.03;;
1925;SDS011;964;42.606;23.588;2023-04-15T04:04:16;4.50;;;3.10;;
1925;SDS011;964;42.606;23.588;2023-04-15T04:06:43;5.50;;;2.83;;
1925;SDS011;964;42.606;23.588;2023-04-15T04:09:10;4.60;;;3.20;;
1925;SDS011;964;42.606;23.588;2023-04-15T04:11:37;3.20;;;2.90;;
1925;SDS011;964;42.606;23.588;2023-04-15T04:14:04;3.23;;;2.90;;
1925;SDS011;964;42.606;23.588;2023-04-15T04:16:31;8.93;;;2.80;;
1925;SDS011;964;42.606;23.588;2023-04-15T04:18:59;5.67;;;3.20;;
1925;SDS011;964;42.606;23.588;2023-04-15T04:21:25;3.77;;;2.77;;
1925;SDS011;964;42.606;23.588;2023-04-15T04:23:53;2.93;;;2.30;;
1925;SDS011;964;42.606;23.588;2023-04-15T04:29:08;4.60;;;2.37;;
1925;SDS011;964;42.606;23.588;2023-04-15T04:31:35;3.03;;;2.13;;
1925;SDS011;964;42.606;23.588;2023-04-15T04:34:04;4.17;;;2.50;;
1925;SDS011;964;42.606;23.588;2023-04-15T04:36:30;5.80;;;2.60;;
1925;SDS011;964;42.606;23.588;2023-04-15T04:38:59;6.03;;;3.13;;
1925;SDS011;964;42.606;23.588;2023-04-15T04:41:26;3.40;;;2.67;;
1925;SDS011;964;42.606;23.588;2023-04-15T04:43:53;3.07;;;2.10;;
1925;SDS011;964;42.606;23.588;2023-04-15T04:46:20;3.90;;;2.80;;
1925;SDS011;964;42.606;23.588;2023-04-15T04:48:47;3.90;;;2.60;;
1925;SDS011;964;42.606;23.588;2023-04-15T04:51:16;4.20;;;2.63;;
1925;SDS011;964;42.606;23.588;2023-04-15T04:53:43;2.57;;;2.23;;
1925;SDS011;964;42.606;23.588;2023-04-15T04:56:10;3.97;;;2.40;;
1925;SDS011;964;42.606;23.588;2023-04-15T04:58:37;4.43;;;4.03;;
1925;SDS011;964;42.606;23.588;2023-04-15T05:01:04;4.47;;;3.80;;
1925;SDS011;964;42.606;23.588;2023-04-15T05:03:31;4.10;;;2.80;;
1925;SDS011;964;42.606;23.588;2023-04-15T05:05:58;3.10;;;2.50;;
1925;SDS011;964;42.606;23.588;2023-04-15T05:08:26;3.10;;;2.63;;
1925;SDS011;964;42.606;23.588;2023-04-15T05:10:53;5.23;;;2.97;;
1925;SDS011;964;42.606;23.588;2023-04-15T05:13:20;3.87;;;2.93;;
1925;SDS011;964;42.606;23.588;2023-04-15T05:15:46;4.07;;;2.73;;
1925;SDS011;964;42.606;23.588;2023-04-15T05:18:13;2.83;;;2.50;;
1925;SDS011;964;42.606;23.588;2023-04-15T05:20:40;2.23;;;2.03;;
1925;SDS011;964;42.606;23.588;2023-04-15T05:23:07;6.13;;;2.60;;
1925;SDS011;964;42.606;23.588;2023-04-15T05:25:35;4.57;;;2.70;;
1925;SDS011;964;42.606;23.588;2023-04-15T05:28:02;4.80;;;3.57;;
1925;SDS011;964;42.606;23.588;2023-04-15T05:30:29;5.13;;;3.43;;
1925;SDS011;964;42.606;23.588;2023-04-15T05:32:56;6.50;;;4.20;;
1925;SDS011;964;42.606;23.588;2023-04-15T05:35:23;5.73;;;3.97;;
1925;SDS011;964;42.606;23.588;2023-04-15T05:37:49;6.43;;;4.00;;
1925;SDS011;964;42.606;23.588;2023-04-15T05:40:16;5.60;;;3.70;;
1925;SDS011;964;42.606;23.588;2023-04-15T05:42:45;17.40;;;8.10;;
1925;SDS011;964;42.606;23.588;2023-04-15T05:45:12;9.10;;;5.30;;
1925;SDS011;964;42.606;23.588;2023-04-15T05:47:39;6.37;;;4.83;;
1925;SDS011;964;42.606;23.588;2023-04-15T05:50:06;6.37;;;3.47;;
1925;SDS011;964;42.606;23.588;2023-04-15T05:52:33;7.57;;;5.13;;
1925;SDS011;964;42.606;23.588;2023-04-15T05:55:01;7.10;;;4.20;;
1925;SDS011;964;42.606;23.588;2023-04-15T05:57:27;7.70;;;3.90;;
1925;SDS011;964;42.606;23.588;2023-04-15T05:59:56;3.53;;;2.90;;
1925;SDS011;964;42.606;23.588;2023-04-15T06:02:23;8.53;;;4.30;;
1925;SDS011;964;42.606;23.588;2023-04-15T06:04:50;7.20;;;4.50;;
1925;SDS011;964;42.606;23.588;2023-04-15T06:07:17;9.43;;;3.80;;
1925;SDS011;964;42.606;23.588;2023-04-15T06:09:44;6.23;;;3.53;;
1925;SDS011;964;42.606;23.588;2023-04-15T06:12:11;5.50;;;4.47;;
1925;SDS011;964;42.606;23.588;2023-04-15T06:14:38;7.17;;;4.10;;
1925;SDS011;964;42.606;23.588;2023-04-15T06:17:07;5.77;;;3.90;;
1925;SDS011;964;42.606;23.588;2023-04-15T06:19:34;6.70;;;4.90;;
1925;SDS011;964;42.606;23.588;2023-04-15T06:22:01;4.93;;;3.73;;
1925;SDS011;964;42.606;23.588;2023-04-15T06:24:28;4.73;;;4.07;;
1925;SDS011;964;42.606;23.588;2023-04-15T06:26:55;8.50;;;4.30;;
1925;SDS011;964;42.606;23.588;2023-04-15T06:29:22;9.80;;;5.27;;
1925;SDS011;964;42.606;23.588;2023-04-15T06:31:49;6.50;;;4.80;;
1925;SDS011;964;42.606;23.588;2023-04-15T06:34:17;3.50;;;3.20;;
1925;SDS011;964;42.606;23.588;2023-04-15T06:36:44;3.40;;;3.07;;
1925;SDS011;964;42.606;23.588;2023-04-15T06:39:11;7.67;;;3.23;;
1925;SDS011;964;42.606;23.588;2023-04-15T06:41:38;4.90;;;3.60;;
1925;SDS011;964;42.606;23.588;2023-04-15T06:44:05;5.67;;;3.50;;
1925;SDS011;964;42.606;23.588;2023-04-15T06:46:32;3.73;;;3.33;;
1925;SDS011;964;42.606;23.588;2023-04-15T06:48:59;5.43;;;3.37;;
1925;SDS011;964;42.606;23.588;2023-04-15T06:51:27;2.90;;;2.70;;
1925;SDS011;964;42.606;23.588;2023-04-15T06:53:54;3.50;;;3.20;;
1925;SDS011;964;42.606;23.588;2023-04-15T06:56:21;4.20;;;3.10;;
1925;SDS011;964;42.606;23.588;2023-04-15T06:58:48;2.90;;;2.47;;
1925;SDS011;964;42.606;23.588;2023-04-15T07:01:15;2.57;;;1.83;;
1925;SDS011;964;42.606;23.588;2023-04-15T07:03:42;4.60;;;1.80;;
1925;SDS011;964;42.606;23.588;2023-04-15T07:06:08;2.00;;;1.70;;
1925;SDS011;964;42.606;23.588;2023-04-15T07:08:37;3.77;;;2.13;;
1925;SDS011;964;42.606;23.588;2023-04-15T07:11:04;3.00;;;2.00;;
1925;SDS011;964;42.606;23.588;2023-04-15T07:13:31;2.23;;;1.90;;
1925;SDS011;964;42.606;23.588;2023-04-15T07:15:58;2.07;;;1.80;;
1925;SDS011;964;42.606;23.588;2023-04-15T07:18:25;2.03;;;1.70;;
1925;SDS011;964;42.606;23.588;2023-04-15T07:20:52;2.27;;;1.77;;
1925;SDS011;964;42.606;23.588;2023-04-15T07:23:20;1.73;;;1.63;;
1925;SDS011;964;42.606;23.588;2023-04-15T07:25:48;2.60;;;2.00;;
1925;SDS011;964;42.606;23.588;2023-04-15T07:28:16;3.30;;;2.40;;
1925;SDS011;964;42.606;23.588;2023-04-15T07:30:43;5.00;;;2.23;;
1925;SDS011;964;42.606;23.588;2023-04-15T07:33:10;3.57;;;1.83;;
1925;SDS011;964;42.606;23.588;2023-04-15T07:35:37;2.40;;;1.70;;
1925;SDS011;964;42.606;23.588;2023-04-15T07:38:04;2.60;;;1.70;;
1925;SDS011;964;42.606;23.588;2023-04-15T07:40:31;8.73;;;2.00;;
1925;SDS011;964;42.606;23.588;2023-04-15T07:43:00;4.73;;;2.10;;
1925;SDS011;964;42.606;23.588;2023-04-15T07:45:26;3.70;;;2.10;;
1925;SDS011;964;42.606;23.588;2023-04-15T07:47:53;3.00;;;2.17;;
1925;SDS011;964;42.606;23.588;2023-04-15T07:50:21;5.40;;;2.03;;
1925;SDS011;964;42.606;23.588;2023-04-15T07:52:48;3.23;;;2.23;;
1925;SDS011;964;42.606;23.588;2023-04-15T07:55:16;4.70;;;2.53;;
1925;SDS011;964;42.606;23.588;2023-04-15T07:57:45;5.77;;;2.40;;
1925;SDS011;964;42.606;23.588;2023-04-15T08:00:14;4.33;;;2.53;;
1925;SDS011;964;42.606;23.588;2023-04-15T08:02:42;3.03;;;2.00;;
1925;SDS011;964;42.606;23.588;2023-04-15T08:05:10;5.40;;;2.23;;
1925;SDS011;964;42.606;23.588;2023-04-15T08:07:39;5.67;;;2.30;;
1925;SDS011;964;42.606;23.588;2023-04-15T08:10:06;2.40;;;2.20;;
1925;SDS011;964;42.606;23.588;2023-04-15T08:12:34;4.78;;;2.40;;
1925;SDS011;964;42.606;23.588;2023-04-15T08:15:02;4.17;;;2.63;;
1925;SDS011;964;42.606;23.588;2023-04-15T08:17:30;4.33;;;2.40;;
1925;SDS011;964;42.606;23.588;2023-04-15T08:19:57;2.67;;;2.20;;
1925;SDS011;964;42.606;23.588;2023-04-15T08:22:24;5.73;;;3.00;;
1925;SDS011;964;42.606;23.588;2023-04-15T08:24:51;3.23;;;2.57;;
1925;SDS011;964;42.606;23.588;2023-04-15T08:27:18;6.87;;;1.90;;
1925;SDS011;964;42.606;23.588;2023-04-15T08:29:45;3.50;;;1.70;;
1925;SDS011;964;42.606;23.588;2023-04-15T08:32:12;3.60;;;1.90;;
1925;SDS011;964;42.606;23.588;2023-04-15T08:34:41;2.10;;;1.90;;
1925;SDS011;964;42.606;23.588;2023-04-15T08:37:07;2.90;;;1.70;;
1925;SDS011;964;42.606;23.588;2023-04-15T08:39:34;3.50;;;1.80;;
1925;SDS011;964;42.606;23.588;2023-04-15T08:42:02;3.03;;;1.50;;
1925;SDS011;964;42.606;23.588;2023-04-15T08:44:32;2.53;;;1.60;;
1925;SDS011;964;42.606;23.588;2023-04-15T08:47:01;2.83;;;1.60;;
1925;SDS011;964;42.606;23.588;2023-04-15T08:49:28;3.30;;;1.83;;
1925;SDS011;964;42.606;23.588;2023-04-15T08:51:58;2.90;;;2.60;;
1925;SDS011;964;42.606;23.588;2023-04-15T08:54:25;4.00;;;2.10;;
1925;SDS011;964;42.606;23.588;2023-04-15T08:56:53;3.43;;;1.70;;
1925;SDS011;964;42.606;23.588;2023-04-15T08:59:20;5.43;;;1.77;;
1925;SDS011;964;42.606;23.588;2023-04-15T09:01:47;7.83;;;1.43;;
1925;SDS011;964;42.606;23.588;2023-04-15T09:04:14;5.97;;;2.17;;
1925;SDS011;964;42.606;23.588;2023-04-15T09:06:42;4.93;;;1.97;;
1925;SDS011;964;42.606;23.588;2023-04-15T09:09:12;1.70;;;1.50;;
1925;SDS011;964;42.606;23.588;2023-04-15T09:11:39;3.87;;;1.70;;
1925;SDS011;964;42.606;23.588;2023-04-15T09:14:06;4.80;;;1.70;;
1925;SDS011;964;42.606;23.588;2023-04-15T09:19:25;2.17;;;1.90;;
1925;SDS011;964;42.606;23.588;2023-04-15T09:21:53;3.40;;;2.03;;
1925;SDS011;964;42.606;23.588;2023-04-15T09:24:23;2.40;;;1.53;;
1925;SDS011;964;42.606;23.588;2023-04-15T09:26:51;4.73;;;2.37;;
1925;SDS011;964;42.606;23.588;2023-04-15T09:29:19;4.13;;;1.70;;
1925;SDS011;964;42.606;23.588;2023-04-15T09:31:49;5.77;;;2.00;;
1925;SDS011;964;42.606;23.588;2023-04-15T09:34:16;3.53;;;1.83;;
1925;SDS011;964;42.606;23.588;2023-04-15T09:36:53;2.40;;;1.60;;
1925;SDS011;964;42.606;23.588;2023-04-15T09:39:23;6.00;;;1.80;;
1925;SDS011;964;42.606;23.588;2023-04-15T09:42:03;3.60;;;2.10;;
1925;SDS011;964;42.606;23.588;2023-04-15T09:44:31;2.53;;;1.60;;
1925;SDS011;964;42.606;23.588;2023-04-15T09:46:58;2.50;;;1.30;;
1925;SDS011;964;42.606;23.588;2023-04-15T09:49:24;2.37;;;1.57;;
1925;SDS011;964;42.606;23.588;2023-04-15T09:51:53;1.73;;;1.40;;
1925;SDS011;964;42.606;23.588;2023-04-15T09:54:25;2.00;;;1.40;;
1925;SDS011;964;42.606;23.588;2023-04-15T09:57:03;2.47;;;1.77;;
1925;SDS011;964;42.606;23.588;2023-04-15T09:59:31;2.63;;;1.33;;
1925;SDS011;964;42.606;23.588;2023-04-15T10:01:58;3.00;;;1.83;;
1925;SDS011;964;42.606;23.588;2023-04-15T10:04:27;3.10;;;1.53;;
1925;SDS011;964;42.606;23.588;2023-04-15T10:06:55;1.80;;;1.30;;
1925;SDS011;964;42.606;23.588;2023-04-15T10:09:23;2.60;;;1.40;;
1925;SDS011;964;42.606;23.588;2023-04-15T10:11:52;9.23;;;3.40;;
1925;SDS011;964;42.606;23.588;2023-04-15T10:14:20;4.23;;;1.87;;
1925;SDS011;964;42.606;23.588;2023-04-15T10:16:47;2.50;;;1.50;;
1925;SDS011;964;42.606;23.588;2023-04-15T10:19:15;2.50;;;1.67;;
1925;SDS011;964;42.606;23.588;2023-04-15T10:21:48;3.27;;;2.20;;
1925;SDS011;964;42.606;23.588;2023-04-15T10:24:16;5.23;;;2.40;;
1925;SDS011;964;42.606;23.588;2023-04-15T10:26:45;2.13;;;1.80;;
1925;SDS011;964;42.606;23.588;2023-04-15T10:29:12;3.00;;;1.50;;
1925;SDS011;964;42.606;23.588;2023-04-15T10:31:39;5.30;;;1.30;;
1925;SDS011;964;42.606;23.588;2023-04-15T10:34:07;2.43;;;1.30;;
1925;SDS011;964;42.606;23.588;2023-04-15T10:36:34;1.57;;;1.10;;
1925;SDS011;964;42.606;23.588;2023-04-15T10:39:01;1.20;;;1.10;;
1925;SDS011;964;42.606;23.588;2023-04-15T10:41:55;2.20;;;1.10;;
1925;SDS011;964;42.606;23.588;2023-04-15T10:44:31;2.27;;;1.47;;
1925;SDS011;964;42.606;23.588;2023-04-15T10:46:58;2.20;;;1.00;;
1925;SDS011;964;42.606;23.588;2023-04-15T10:49:25;2.07;;;1.40;;
1925;SDS011;964;42.606;23.588;2023-04-15T10:51:56;1.47;;;1.07;;
1925;SDS011;964;42.606;23.588;2023-04-15T10:54:30;2.67;;;1.60;;
1925;SDS011;964;42.606;23.588;2023-04-15T10:57:07;1.90;;;1.40;;
1925;SDS011;964;42.606;23.588;2023-04-15T11:02:45;2.37;;;1.40;;
1925;SDS011;964;42.606;23.588;2023-04-15T11:05:13;2.53;;;1.23;;
1925;SDS011;964;42.606;23.588;2023-04-15T11:07:46;2.77;;;1.33;;
1925;SDS011;964;42.606;23.588;2023-04-15T11:13:24;1.90;;;1.43;;
1925;SDS011;964;42.606;23.588;2023-04-15T11:15:56;2.63;;;1.33;;
1925;SDS011;964;42.606;23.588;2023-04-15T11:18:31;5.27;;;1.80;;
1925;SDS011;964;42.606;23.588;2023-04-15T11:21:00;3.30;;;1.57;;
1925;SDS011;964;42.606;23.588;2023-04-15T11:23:33;1.40;;;1.20;;
1925;SDS011;964;42.606;23.588;2023-04-15T11:26:01;3.67;;;1.93;;
1925;SDS011;964;42.606;23.588;2023-04-15T11:28:35;2.60;;;1.70;;
1925;SDS011;964;42.606;23.588;2023-04-15T11:31:05;3.93;;;2.63;;
1925;SDS011;964;42.606;23.588;2023-04-15T11:33:34;5.00;;;2.67;;
1925;SDS011;964;42.606;23.588;2023-04-15T11:36:01;4.30;;;2.80;;
1925;SDS011;964;42.606;23.588;2023-04-15T11:38:28;3.40;;;2.90;;
1925;SDS011;964;42.606;23.588;2023-04-15T11:40:56;2.70;;;1.63;;
1925;SDS011;964;42.606;23.588;2023-04-15T11:43:23;1.70;;;1.30;;
1925;SDS011;964;42.606;23.588;2023-04-15T11:45:52;2.90;;;1.43;;
1925;SDS011;964;42.606;23.588;2023-04-15T11:48:21;1.80;;;1.30;;
1925;SDS011;964;42.606;23.588;2023-04-15T11:50:52;1.70;;;1.43;;
1925;SDS011;964;42.606;23.588;2023-04-15T11:53:20;2.47;;;1.30;;
1925;SDS011;964;42.606;23.588;2023-04-15T11:55:48;1.70;;;1.20;;
1925;SDS011;964;42.606;23.588;2023-04-15T11:58:16;2.17;;;1.20;;
1925;SDS011;964;42.606;23.588;2023-04-15T12:00:47;1.57;;;1.23;;
1925;SDS011;964;42.606;23.588;2023-04-15T12:03:18;2.43;;;1.13;;
1925;SDS011;964;42.606;23.588;2023-04-15T12:08:50;1.53;;;1.40;;
1925;SDS011;964;42.606;23.588;2023-04-15T12:11:18;9.93;;;1.33;;
1925;SDS011;964;42.606;23.588;2023-04-15T12:13:46;7.13;;;1.27;;
1925;SDS011;964;42.606;23.588;2023-04-15T12:16:15;2.60;;;1.30;;
1925;SDS011;964;42.606;23.588;2023-04-15T12:18:45;2.77;;;1.20;;
1925;SDS011;964;42.606;23.588;2023-04-15T12:21:12;2.30;;;1.20;;
1925;SDS011;964;42.606;23.588;2023-04-15T12:23:47;2.13;;;1.23;;
1925;SDS011;964;42.606;23.588;2023-04-15T12:26:15;2.17;;;1.70;;
1925;SDS011;964;42.606;23.588;2023-04-15T12:28:42;1.43;;;1.20;;
1925;SDS011;964;42.606;23.588;2023-04-15T12:31:09;2.50;;;1.50;;
1925;SDS011;964;42.606;23.588;2023-04-15T12:33:37;3.23;;;1.17;;
1925;SDS011;964;42.606;23.588;2023-04-15T12:36:06;2.57;;;1.30;;
1925;SDS011;964;42.606;23.588;2023-04-15T12:38:33;2.37;;;1.17;;
1925;SDS011;964;42.606;23.588;2023-04-15T12:41:00;1.40;;;1.13;;
1925;SDS011;964;42.606;23.588;2023-04-15T12:43:27;1.83;;;1.20;;
1925;SDS011;964;42.606;23.588;2023-04-15T12:45:53;5.17;;;1.50;;
1925;SDS011;964;42.606;23.588;2023-04-15T12:48:21;4.50;;;1.40;;
1925;SDS011;964;42.606;23.588;2023-04-15T12:50:47;2.07;;;1.30;;
1925;SDS011;964;42.606;23.588;2023-04-15T12:53:16;1.90;;;1.70;;
1925;SDS011;964;42.606;23.588;2023-04-15T12:55:43;1.73;;;1.23;;
1925;SDS011;964;42.606;23.588;2023-04-15T12:58:10;2.60;;;1.37;;
1925;SDS011;964;42.606;23.588;2023-04-15T13:00:37;1.37;;;1.00;;
1925;SDS011;964;42.606;23.588;2023-04-15T13:03:05;3.17;;;1.43;;
1925;SDS011;964;42.606;23.588;2023-04-15T13:05:32;1.40;;;1.10;;
1925;SDS011;964;42.606;23.588;2023-04-15T13:08:01;1.60;;;1.00;;
1925;SDS011;964;42.606;23.588;2023-04-15T13:10:29;1.60;;;1.40;;
1925;SDS011;964;42.606;23.588;2023-04-15T13:12:56;2.07;;;1.20;;
1925;SDS011;964;42.606;23.588;2023-04-15T13:15:23;5.77;;;3.53;;
1925;SDS011;964;42.606;23.588;2023-04-15T13:17:50;6.40;;;2.40;;
1925;SDS011;964;42.606;23.588;2023-04-15T13:20:17;3.80;;;1.57;;
1925;SDS011;964;42.606;23.588;2023-04-15T13:22:43;2.50;;;1.50;;
1925;SDS011;964;42.606;23.588;2023-04-15T13:25:11;4.50;;;1.37;;
1925;SDS011;964;42.606;23.588;2023-04-15T13:27:39;3.63;;;1.70;;
1925;SDS011;964;42.606;23.588;2023-04-15T13:30:06;3.50;;;1.70;;
1925;SDS011;964;42.606;23.588;2023-04-15T13:32:34;6.60;;;3.10;;
1925;SDS011;964;42.606;23.588;2023-04-15T13:35:00;6.67;;;3.10;;
1925;SDS011;964;42.606;23.588;2023-04-15T13:37:27;3.50;;;1.73;;
1925;SDS011;964;42.606;23.588;2023-04-15T13:39:55;3.83;;;1.70;;
1925;SDS011;964;42.606;23.588;2023-04-15T13:42:23;6.53;;;3.53;;
1925;SDS011;964;42.606;23.588;2023-04-15T13:44:52;6.30;;;3.00;;
1925;SDS011;964;42.606;23.588;2023-04-15T13:47:18;4.50;;;2.77;;
1925;SDS011;964;42.606;23.588;2023-04-15T13:49:46;8.53;;;4.30;;
1925;SDS011;964;42.606;23.588;2023-04-15T13:52:13;4.33;;;2.47;;
1925;SDS011;964;42.606;23.588;2023-04-15T13:54:40;2.50;;;1.60;;
1925;SDS011;964;42.606;23.588;2023-04-15T13:57:07;3.23;;;1.37;;
1925;SDS011;964;42.606;23.588;2023-04-15T13:59:34;1.13;;;0.97;;
1925;SDS011;964;42.606;23.588;2023-04-15T14:02:02;1.30;;;1.20;;
1925;SDS011;964;42.606;23.588;2023-04-15T14:04:29;2.63;;;1.10;;
1925;SDS011;964;42.606;23.588;2023-04-15T14:06:56;1.60;;;1.20;;
1925;SDS011;964;42.606;23.588;2023-04-15T14:09:23;3.27;;;1.40;;
1925;SDS011;964;42.606;23.588;2023-04-15T14:11:50;1.40;;;1.23;;
1925;SDS011;964;42.606;23.588;2023-04-15T14:14:17;2.70;;;1.00;;
1925;SDS011;964;42.606;23.588;2023-04-15T14:16:44;2.90;;;1.70;;
1925;SDS011;964;42.606;23.588;2023-04-15T14:19:14;2.30;;;1.30;;
1925;SDS011;964;42.606;23.588;2023-04-15T14:21:41;3.30;;;1.40;;
1925;SDS011;964;42.606;23.588;2023-04-15T14:24:07;2.17;;;1.20;;
1925;SDS011;964;42.606;23.588;2023-04-15T14:26:34;1.40;;;1.27;;
1925;SDS011;964;42.606;23.588;2023-04-15T14:29:02;1.00;;;0.80;;
1925;SDS011;964;42.606;23.588;2023-04-15T14:31:28;1.50;;;1.10;;
1925;SDS011;964;42.606;23.588;2023-04-15T14:33:55;4.10;;;1.30;;
1925;SDS011;964;42.606;23.588;2023-04-15T14:36:23;1.50;;;1.07;;
1925;SDS011;964;42.606;23.588;2023-04-15T14:38:51;2.23;;;1.27;;
1925;SDS011;964;42.606;23.588;2023-04-15T14:41:18;2.80;;;0.90;;
1925;SDS011;964;42.606;23.588;2023-04-15T14:43:45;2.03;;;1.20;;
1925;SDS011;964;42.606;23.588;2023-04-15T14:46:11;1.00;;;0.83;;
1925;SDS011;964;42.606;23.588;2023-04-15T14:48:39;1.20;;;0.90;;
1925;SDS011;964;42.606;23.588;2023-04-15T14:51:06;1.20;;;0.90;;
1925;SDS011;964;42.606;23.588;2023-04-15T14:53:34;1.10;;;1.00;;
1925;SDS011;964;42.606;23.588;2023-04-15T14:56:01;2.50;;;1.10;;
1925;SDS011;964;42.606;23.588;2023-04-15T14:58:28;2.53;;;1.40;;
1925;SDS011;964;42.606;23.588;2023-04-15T15:00:56;2.97;;;1.53;;
1925;SDS011;964;42.606;23.588;2023-04-15T15:03:23;2.13;;;1.70;;
1925;SDS011;964;42.606;23.588;2023-04-15T15:05:51;2.00;;;1.40;;
1925;SDS011;964;42.606;23.588;2023-04-15T15:08:18;1.40;;;1.20;;
1925;SDS011;964;42.606;23.588;2023-04-15T15:10:46;3.20;;;1.90;;
1925;SDS011;964;42.606;23.588;2023-04-15T15:13:12;1.73;;;1.63;;
1925;SDS011;964;42.606;23.588;2023-04-15T15:15:39;1.83;;;1.20;;
1925;SDS011;964;42.606;23.588;2023-04-15T15:18:07;1.30;;;1.20;;
1925;SDS011;964;42.606;23.588;2023-04-15T15:20:34;1.50;;;1.27;;
1925;SDS011;964;42.606;23.588;2023-04-15T15:23:00;1.43;;;1.00;;
1925;SDS011;964;42.606;23.588;2023-04-15T15:25:27;2.50;;;0.90;;
1925;SDS011;964;42.606;23.588;2023-04-15T15:27:55;1.80;;;1.10;;
1925;SDS011;964;42.606;23.588;2023-04-15T15:30:23;1.33;;;1.03;;
1925;SDS011;964;42.606;23.588;2023-04-15T15:32:50;3.30;;;1.30;;